createdAt,value
2023-03-22T00:04:29.170Z,100609.36
2023-03-22T00:09:34.717Z,100604.48
2023-03-22T00:14:41.460Z,100590.03
2023-03-22T00:19:47.482Z,100587.94
2023-03-22T00:24:52.890Z,100586.03
2023-03-22T00:29:58.375Z,100578.01
2023-03-22T00:35:05.391Z,100568.36
2023-03-22T00:40:13.596Z,100569.60
2023-03-22T00:45:19.372Z,100567.60
2023-03-22T00:50:24.925Z,100559.86
2023-03-22T00:55:30.707Z,100555.47
2023-03-22T01:00:36.502Z,100560.70
2023-03-22T01:05:42.091Z,100567.51
2023-03-22T01:10:47.740Z,100569.97
2023-03-22T01:15:53.541Z,100575.33
2023-03-22T01:21:01.175Z,100580.38
2023-03-22T01:26:08.508Z,100555.66
2023-03-22T01:31:14.626Z,100552.77
2023-03-22T01:36:21.423Z,100549.13
2023-03-22T01:41:27.155Z,100540.17
2023-03-22T01:46:33.876Z,100531.36
2023-03-22T01:51:43.873Z,100521.06
2023-03-22T01:57:07.927Z,100506.54
2023-03-22T02:02:17.954Z,100512.75
2023-03-22T02:07:28.613Z,100506.23
2023-03-22T02:12:55.746Z,100510.37
2023-03-22T02:18:26.623Z,100509.28
2023-03-22T02:23:53.891Z,100500.52
2023-03-22T02:29:07.520Z,100503.77
2023-03-22T02:34:24.895Z,100482.84
2023-03-22T02:39:36.393Z,100491.98
2023-03-22T02:44:51.587Z,100480.08
2023-03-22T02:50:02.734Z,100482.84
2023-03-22T02:55:34.301Z,100475.66
2023-03-22T03:00:44.245Z,100476.70
2023-03-22T03:05:52.708Z,100468.77
2023-03-22T03:10:58.736Z,100468.70
2023-03-22T03:16:08.087Z,100468.89
2023-03-22T03:21:48.699Z,100460.30
2023-03-22T03:27:12.413Z,100468.80
2023-03-22T03:32:26.957Z,100462.50
2023-03-22T03:37:39.347Z,100459.73
2023-03-22T03:42:47.800Z,100455.16
2023-03-22T03:47:57.355Z,100454.48
2023-03-22T03:53:03.549Z,100456.77
2023-03-22T03:58:12.383Z,100460.02
2023-03-22T04:03:19.666Z,100464.59
2023-03-22T04:08:27.757Z,100473.28
2023-03-22T04:13:33.534Z,100469.66
2023-03-22T04:18:40.828Z,100468.16
2023-03-22T04:23:46.981Z,100460.97
2023-03-22T04:28:53.828Z,100463.76
2023-03-22T04:34:00.490Z,100458.68
2023-03-22T04:39:12.680Z,100455.23
2023-03-22T04:44:19.137Z,100444.73
2023-03-22T04:49:27.202Z,100446.92
2023-03-22T04:54:32.757Z,100443.97
2023-03-22T04:59:39.220Z,100449.69
2023-03-22T05:04:45.442Z,100443.39
2023-03-22T05:09:52.795Z,100445.30
2023-03-22T05:14:58.579Z,100442.53
2023-03-22T05:20:10.432Z,100440.34
2023-03-22T05:25:17.856Z,100449.63
2023-03-22T05:30:24.435Z,100438.52
2023-03-22T05:35:33.783Z,100438.23
2023-03-22T05:40:40.580Z,100432.70
2023-03-22T05:45:47.626Z,100428.98
2023-03-22T05:50:54.727Z,100418.19
2023-03-22T05:56:00.908Z,100416.47
2023-03-22T06:01:11.653Z,100418.86
2023-03-22T06:06:28.358Z,100417.98
2023-03-22T06:11:38.265Z,100424.01
2023-03-22T06:16:44.959Z,100414.75
2023-03-22T06:21:51.979Z,100416.75
2023-03-22T06:26:59.136Z,100412.02
2023-03-22T06:32:06.922Z,100413.61
2023-03-22T06:37:12.774Z,100416.25
2023-03-22T06:42:20.008Z,100414.09
2023-03-22T06:47:27.553Z,100413.95
2023-03-22T06:52:41.155Z,100422.02
2023-03-22T06:57:46.984Z,100419.03
2023-03-22T07:02:52.903Z,100417.88
2023-03-22T07:08:00.301Z,100419.25
2023-03-22T07:13:06.649Z,100413.13
2023-03-22T07:18:13.654Z,100411.46
2023-03-22T07:23:20.405Z,100400.14
2023-03-22T07:28:28.221Z,100402.45
2023-03-22T07:33:34.947Z,100399.95
2023-03-22T07:38:40.699Z,100406.68
2023-03-22T07:43:55.421Z,100415.73
2023-03-22T07:48:56.332Z,100400.25
2023-03-22T07:54:06.401Z,100395.94
2023-03-22T07:59:11.889Z,100387.32
2023-03-22T08:04:19.601Z,100387.32
2023-03-22T08:09:33.408Z,100381.47
2023-03-22T08:14:39.322Z,100383.09
2023-03-22T08:19:47.148Z,100375.33
2023-03-22T08:24:54.249Z,100372.91
2023-03-22T08:30:02.494Z,100365.84
2023-03-22T08:35:10.067Z,100373.77
2023-03-22T08:40:16.112Z,100376.06
2023-03-22T08:45:23.416Z,100366.75
2023-03-22T08:50:30.781Z,100362.09
2023-03-22T08:55:40.167Z,100363.65
2023-03-22T09:00:53.633Z,100369.88
2023-03-22T09:06:11.741Z,100370.78
2023-03-22T09:11:20.342Z,100371.88
2023-03-22T09:16:26.187Z,100367.78
2023-03-22T09:21:32.114Z,100364.44
2023-03-22T09:26:39.508Z,100361.22
2023-03-22T09:31:46.856Z,100366.02
2023-03-22T09:36:54.617Z,100360.98
2023-03-22T09:42:06.349Z,100351.63
2023-03-22T09:47:18.292Z,100343.64
2023-03-22T09:52:23.869Z,100329.31
2023-03-22T09:57:34.478Z,100325.77
2023-03-22T10:02:45.904Z,100332.19
2023-03-22T10:07:57.347Z,100337.69
2023-03-22T10:13:15.476Z,100327.61
2023-03-22T10:18:24.054Z,100331.89
2023-03-22T10:23:35.491Z,100327.11
2023-03-22T10:28:44.196Z,100327.23
2023-03-22T10:33:58.563Z,100321.34
2023-03-22T10:39:07.109Z,100318.54
2023-03-22T10:44:15.745Z,100312.92
2023-03-22T10:49:26.736Z,100302.41
2023-03-22T10:54:32.793Z,100300.20
2023-03-22T10:59:52.167Z,100297.39
2023-03-22T11:05:00.692Z,100296.11
2023-03-22T11:10:12.188Z,100292.38
2023-03-22T11:15:35.769Z,100288.27
2023-03-22T11:20:44.468Z,100276.44
2023-03-22T11:25:52.827Z,100262.47
2023-03-22T11:31:11.149Z,100252.15
2023-03-22T11:36:19.201Z,100243.44
2023-03-22T11:41:28.048Z,100245.22
2023-03-22T11:46:36.232Z,100244.72
2023-03-22T11:51:43.350Z,100240.02
2023-03-22T11:56:50.650Z,100226.76
2023-03-22T12:02:17.380Z,100231.12
2023-03-22T12:07:24.789Z,100229.17
2023-03-22T12:12:36.260Z,100217.05
2023-03-22T12:18:10.936Z,100226.12
2023-03-22T12:23:19.159Z,100224.41
2023-03-22T12:28:27.697Z,100224.60
2023-03-22T12:33:36.213Z,100218.80
2023-03-22T12:38:44.670Z,100205.88
2023-03-22T12:43:56.128Z,100194.32
2023-03-22T12:49:40.657Z,100193.01
2023-03-22T12:54:49.682Z,100200.64
2023-03-22T12:59:58.558Z,100203.98
2023-03-22T13:05:08.988Z,100194.19
2023-03-22T13:10:37.089Z,100177.98
2023-03-22T13:16:00.902Z,100167.98
2023-03-22T13:21:21.301Z,100157.31
2023-03-22T13:26:51.680Z,100153.84
2023-03-22T13:32:00.399Z,100163.16
2023-03-22T13:37:25.383Z,100157.86
2023-03-22T13:42:39.976Z,100154.41
2023-03-22T13:47:47.892Z,100153.41
2023-03-22T13:53:05.869Z,100145.95
2023-03-22T13:58:14.043Z,100146.64
2023-03-22T14:03:25.709Z,100145.02
2023-03-22T14:08:34.053Z,100138.44
2023-03-22T14:13:45.381Z,100135.49
2023-03-22T14:18:52.066Z,100139.91
